createdAt,value
2018-05-08T00:01:23.428Z,22.33
2018-05-08T00:03:54.301Z,22.28
2018-05-08T00:06:24.425Z,22.30
2018-05-08T00:08:55.578Z,22.22
2018-05-08T00:11:25.992Z,22.13
2018-05-08T00:13:56.332Z,22.02
2018-05-08T00:16:27.140Z,21.94
2018-05-08T00:18:57.654Z,22.00
2018-05-08T00:21:27.780Z,22.02
2018-05-08T00:23:57.978Z,22.15
2018-05-08T00:26:29.651Z,22.19
2018-05-08T00:29:00.007Z,22.07
2018-05-08T00:31:30.693Z,22.09
2018-05-08T00:34:00.858Z,22.12
2018-05-08T00:36:31.098Z,22.14
2018-05-08T00:39:01.361Z,22.06
2018-05-08T00:41:32.613Z,22.03
2018-05-08T00:44:03.035Z,22.00
2018-05-08T00:46:35.347Z,21.99
2018-05-08T00:49:05.582Z,22.02
2018-05-08T00:51:36.696Z,22.00
2018-05-08T00:54:07.016Z,22.01
2018-05-08T00:56:37.132Z,22.02
2018-05-08T00:59:08.246Z,21.98
2018-05-08T01:01:38.890Z,21.90
2018-05-08T01:04:09.430Z,21.67
2018-05-08T01:06:40.099Z,21.55
2018-05-08T01:09:10.592Z,21.53
2018-05-08T01:11:41.102Z,21.58
2018-05-08T01:14:11.148Z,21.49
2018-05-08T01:16:42.586Z,21.41
2018-05-08T01:19:12.945Z,21.43
2018-05-08T01:21:43.118Z,21.36
2018-05-08T01:24:14.080Z,21.32
2018-05-08T01:26:44.736Z,21.25
2018-05-08T01:29:16.297Z,21.16
2018-05-08T01:31:47.988Z,21.25
2018-05-08T01:34:18.772Z,21.28
2018-05-08T01:36:48.904Z,21.34
2018-05-08T01:39:21.223Z,21.35
2018-05-08T01:41:52.013Z,21.34
2018-05-08T01:44:23.896Z,21.27
2018-05-08T01:46:54.955Z,21.18
2018-05-08T01:49:37.911Z,21.17
2018-05-08T01:52:10.100Z,21.08
2018-05-08T01:54:42.652Z,21.00
2018-05-08T01:57:13.142Z,21.00
2018-05-08T01:59:47.696Z,20.94
2018-05-08T02:02:19.571Z,20.80
2018-05-08T02:04:50.753Z,20.80
2018-05-08T02:07:23.553Z,20.68
2018-05-08T02:09:54.162Z,20.68
2018-05-08T02:12:25.196Z,20.50
2018-05-08T02:14:55.843Z,20.38
2018-05-08T02:17:26.196Z,20.29
2018-05-08T02:19:56.483Z,20.21
2018-05-08T02:22:27.019Z,20.15
2018-05-08T02:24:57.283Z,20.12
2018-05-08T02:27:29.331Z,20.09
2018-05-08T02:29:59.579Z,20.08
2018-05-08T02:32:30.623Z,20.02
2018-05-08T02:35:01.678Z,20.05
2018-05-08T02:37:32.666Z,20.01
2018-05-08T02:40:06.388Z,19.94
2018-05-08T02:42:36.995Z,19.79
2018-05-08T02:45:07.699Z,19.76
2018-05-08T02:47:38.333Z,19.70
2018-05-08T02:50:08.601Z,19.72
2018-05-08T02:52:39.139Z,19.68
2018-05-08T02:55:10.602Z,19.57
2018-05-08T02:57:41.070Z,19.48
2018-05-08T03:00:14.648Z,19.38
2018-05-08T03:02:45.145Z,19.39
2018-05-08T03:05:16.339Z,19.31
2018-05-08T03:07:46.906Z,19.19
2018-05-08T03:10:17.381Z,19.23
2018-05-08T03:12:48.047Z,19.12
2018-05-08T03:15:19.754Z,19.02
2018-05-08T03:17:56.296Z,18.98
2018-05-08T03:20:30.536Z,18.95
2018-05-08T03:23:02.016Z,18.98
2018-05-08T03:25:34.660Z,18.96
2018-05-08T03:28:04.908Z,19.00
2018-05-08T03:30:36.162Z,19.06
2018-05-08T03:33:06.501Z,18.96
2018-05-08T03:35:43.431Z,18.85
2018-05-08T03:38:14.172Z,18.76
2018-05-08T03:40:44.522Z,18.76
2018-05-08T03:43:15.485Z,18.62
2018-05-08T03:45:50.278Z,18.65
2018-05-08T03:48:23.587Z,18.69
2018-05-08T03:50:53.984Z,18.63
2018-05-08T03:53:24.499Z,18.65
2018-05-08T03:55:54.820Z,18.64
2018-05-08T03:58:25.191Z,18.53
2018-05-08T04:02:09.399Z,18.33
2018-05-08T04:06:55.862Z,18.09
2018-05-08T04:09:26.169Z,18.31
2018-05-08T04:11:56.334Z,18.35
2018-05-08T04:14:26.704Z,18.36
2018-05-08T04:16:57.515Z,18.43
2018-05-08T04:19:28.152Z,18.49
2018-05-08T04:21:58.853Z,18.56
2018-05-08T04:24:30.095Z,18.59
2018-05-08T04:27:00.634Z,18.50
2018-05-08T04:29:31.457Z,18.44
2018-05-08T04:32:02.077Z,18.47
2018-05-08T04:34:32.665Z,18.51
2018-05-08T04:39:53.179Z,18.68
2018-05-08T04:42:24.008Z,18.86
2018-05-08T04:44:56.744Z,19.07
2018-05-08T04:47:32.260Z,19.12
2018-05-08T04:50:03.683Z,19.33
2018-05-08T04:52:34.205Z,19.52
2018-05-08T04:55:04.396Z,19.64
2018-05-08T04:57:34.740Z,19.75
2018-05-08T05:00:08.693Z,19.88
2018-05-08T05:02:41.434Z,19.98
2018-05-08T05:05:11.750Z,20.18
2018-05-08T05:07:43.469Z,20.43
2018-05-08T05:10:13.961Z,20.62
2018-05-08T05:12:44.581Z,21.00
2018-05-08T05:15:17.727Z,21.31
2018-05-08T05:17:48.219Z,21.46
2018-05-08T05:20:18.426Z,21.67
2018-05-08T05:22:49.255Z,21.87
2018-05-08T05:25:19.564Z,22.20
2018-05-08T05:27:57.290Z,22.32
2018-05-08T05:30:28.349Z,22.27
2018-05-08T05:33:02.593Z,22.35
2018-05-08T05:35:33.825Z,22.78
2018-05-08T05:38:04.085Z,23.32
2018-05-08T05:40:38.500Z,23.51
2018-05-08T05:43:10.298Z,23.67
2018-05-08T05:45:41.062Z,23.92
2018-05-08T05:48:11.868Z,24.31
2018-05-08T05:50:42.660Z,24.85
2018-05-08T05:53:13.245Z,24.72
2018-05-08T05:55:50.315Z,25.04
2018-05-08T05:58:22.495Z,25.27
2018-05-08T06:00:55.494Z,25.00
2018-05-08T06:03:26.003Z,24.91
2018-05-08T06:05:56.672Z,25.31
2018-05-08T06:08:57.247Z,25.68
2018-05-08T06:11:44.607Z,24.85
2018-05-08T06:16:56.292Z,25.75
2018-05-08T06:19:27.541Z,26.32
2018-05-08T06:22:00.882Z,26.10
2018-05-08T06:24:33.109Z,26.44
2018-05-08T06:27:04.482Z,25.84
2018-05-08T06:29:35.479Z,25.82
2018-05-08T06:32:05.855Z,25.25
2018-05-08T06:34:42.980Z,25.34
2018-05-08T06:37:37.188Z,25.36
2018-05-08T06:40:33.706Z,26.14
2018-05-08T06:43:07.459Z,25.85
2018-05-08T06:45:40.527Z,26.70
2018-05-08T06:48:11.286Z,26.79
2018-05-08T06:50:42.379Z,27.58
2018-05-08T06:53:13.355Z,26.87
2018-05-08T06:55:43.451Z,26.24
2018-05-08T06:58:16.300Z,26.17
2018-05-08T07:00:47.474Z,25.69
2018-05-08T07:03:17.791Z,25.63
2018-05-08T07:05:48.134Z,25.96
2018-05-08T07:08:18.504Z,26.24
2018-05-08T07:10:50.558Z,25.61
2018-05-08T07:13:21.268Z,27.03
2018-05-08T07:15:52.412Z,26.90
2018-05-08T07:18:23.701Z,29.01
2018-05-08T07:20:59.748Z,29.73
2018-05-08T07:23:30.236Z,29.67
2018-05-08T07:26:00.538Z,29.12
2018-05-08T07:28:30.885Z,28.51
2018-05-08T07:31:03.884Z,28.22
2018-05-08T07:33:35.667Z,28.00
2018-05-08T07:36:24.434Z,28.64
2018-05-08T07:38:54.945Z,28.14
2018-05-08T07:41:26.268Z,27.39
2018-05-08T07:43:56.759Z,27.02
2018-05-08T07:46:31.367Z,27.77
2018-05-08T07:49:03.405Z,27.91
2018-05-08T07:51:35.789Z,28.15
2018-05-08T07:54:14.773Z,26.88
2018-05-08T07:56:47.953Z,27.54
2018-05-08T07:59:20.992Z,27.36
2018-05-08T08:01:51.923Z,28.29
2018-05-08T08:04:22.266Z,28.90
2018-05-08T08:06:53.082Z,27.76
2018-05-08T08:09:25.273Z,28.77
2018-05-08T08:11:55.743Z,29.29
2018-05-08T08:14:59.337Z,28.91
2018-05-08T08:17:32.671Z,27.96
2018-05-08T08:20:06.778Z,28.07
2018-05-08T08:22:37.687Z,28.48
2018-05-08T08:25:10.748Z,29.24
2018-05-08T08:27:41.387Z,29.92
2018-05-08T08:30:15.275Z,29.30
2018-05-08T08:32:47.689Z,29.91
2018-05-08T08:35:29.767Z,30.06
2018-05-08T08:38:02.731Z,29.59
2018-05-08T08:40:33.867Z,30.47
2018-05-08T08:43:04.641Z,30.77
2018-05-08T08:45:36.718Z,31.37
2018-05-08T08:48:07.486Z,31.39
2018-05-08T08:50:38.513Z,31.41
2018-05-08T08:53:13.026Z,30.69
2018-05-08T08:55:44.566Z,30.91
2018-05-08T08:58:17.102Z,30.78
2018-05-08T09:00:51.077Z,30.66
2018-05-08T09:03:23.526Z,30.62
2018-05-08T09:05:54.017Z,30.89
2018-05-08T09:08:26.066Z,30.94
2018-05-08T09:10:59.657Z,30.94
2018-05-08T09:13:33.545Z,31.43
2018-05-08T09:16:26.810Z,30.50
2018-05-08T09:19:15.354Z,31.38
2018-05-08T09:21:52.197Z,31.19
2018-05-08T09:24:28.849Z,30.96
2018-05-08T09:27:14.079Z,30.98
2018-05-08T09:29:47.792Z,31.48
2018-05-08T09:32:24.785Z,31.44
2018-05-08T09:38:03.202Z,32.02
2018-05-08T09:40:35.498Z,31.85
2018-05-08T09:43:11.343Z,31.75
2018-05-08T09:45:42.335Z,31.68
2018-05-08T09:48:18.465Z,32.05
2018-05-08T09:50:51.337Z,32.01
2018-05-08T09:53:25.478Z,32.03
2018-05-08T09:55:59.668Z,32.16
2018-05-08T09:58:31.851Z,31.80
2018-05-08T10:01:02.897Z,32.31
2018-05-08T10:03:33.463Z,32.76
2018-05-08T10:06:06.811Z,33.15
2018-05-08T10:08:37.171Z,32.80
2018-05-08T10:11:08.388Z,32.49
2018-05-08T10:13:39.427Z,32.71
2018-05-08T10:16:10.120Z,32.78
2018-05-08T10:18:43.072Z,33.42
2018-05-08T10:21:15.211Z,33.13
2018-05-08T10:23:49.128Z,32.97
2018-05-08T10:26:20.209Z,32.90
2018-05-08T10:28:50.998Z,33.03
2018-05-08T10:31:22.589Z,33.51
2018-05-08T10:33:54.142Z,33.62
2018-05-08T10:36:28.958Z,33.47
2018-05-08T10:39:00.205Z,34.20
2018-05-08T10:41:31.772Z,34.26
2018-05-08T10:44:02.259Z,34.18
2018-05-08T10:46:33.832Z,34.45
2018-05-08T10:49:08.337Z,34.26
2018-05-08T10:51:39.725Z,34.31
2018-05-08T10:54:10.380Z,34.48
2018-05-08T10:56:40.851Z,34.41
2018-05-08T10:59:13.437Z,34.15
2018-05-08T11:01:44.911Z,34.73
2018-05-08T11:04:17.752Z,34.94
2018-05-08T11:06:48.279Z,34.09
2018-05-08T11:09:21.326Z,34.47
2018-05-08T11:11:54.707Z,34.34
2018-05-08T11:14:29.091Z,34.64
2018-05-08T11:17:01.553Z,34.82
2018-05-08T11:19:34.352Z,34.58
2018-05-08T11:22:05.859Z,34.22
2018-05-08T11:27:20.267Z,35.14
2018-05-08T11:29:50.937Z,35.05
2018-05-08T11:32:22.014Z,34.24
2018-05-08T11:34:53.359Z,34.09
2018-05-08T11:37:23.932Z,34.01
2018-05-08T11:39:55.553Z,33.73
2018-05-08T11:42:27.234Z,34.32
2018-05-08T11:44:57.987Z,34.40
2018-05-08T11:47:35.119Z,33.47
2018-05-08T11:50:07.221Z,34.08
2018-05-08T11:52:37.908Z,34.44
2018-05-08T11:55:08.303Z,34.65
2018-05-08T11:57:46.718Z,34.50
2018-05-08T12:00:17.889Z,34.97
2018-05-08T12:02:51.908Z,34.93
2018-05-08T12:05:23.981Z,35.22
2018-05-08T12:07:54.543Z,34.35
2018-05-08T12:10:26.271Z,33.78
2018-05-08T12:12:57.442Z,34.52
2018-05-08T12:15:30.812Z,34.78
2018-05-08T12:18:04.595Z,35.60
2018-05-08T12:23:08.607Z,36.37
2018-05-08T12:25:39.066Z,36.55
2018-05-08T12:28:10.494Z,35.50
2018-05-08T12:30:41.916Z,35.77
2018-05-08T12:33:13.174Z,36.14
2018-05-08T12:35:43.642Z,35.69
2018-05-08T12:38:15.318Z,35.89
2018-05-08T12:40:45.940Z,35.44
2018-05-08T12:43:16.474Z,35.36
2018-05-08T12:45:47.089Z,35.34
2018-05-08T12:48:17.959Z,35.64
2018-05-08T12:50:48.876Z,34.86
2018-05-08T12:53:19.187Z,35.19
2018-05-08T12:55:49.710Z,35.38
2018-05-08T12:58:21.436Z,35.01
2018-05-08T13:00:52.597Z,35.11
2018-05-08T13:03:24.737Z,35.33
2018-05-08T13:05:55.486Z,35.55
2018-05-08T13:08:26.098Z,36.07
2018-05-08T13:10:57.549Z,36.15
2018-05-08T13:13:34.020Z,35.39
2018-05-08T13:16:06.863Z,35.84
2018-05-08T13:18:37.932Z,35.24
2018-05-08T13:21:10.979Z,35.21
2018-05-08T13:23:44.643Z,35.49
2018-05-08T13:26:16.594Z,35.98
2018-05-08T13:28:49.124Z,35.98
2018-05-08T13:31:25.553Z,35.06
2018-05-08T13:34:05.539Z,36.07
2018-05-08T13:36:44.884Z,35.49
2018-05-08T13:39:21.632Z,35.35
2018-05-08T13:41:53.665Z,36.19
2018-05-08T13:44:25.352Z,36.78
2018-05-08T13:46:57.843Z,36.76
2018-05-08T13:49:28.882Z,36.28
2018-05-08T13:51:59.402Z,36.39
2018-05-08T13:54:32.007Z,35.25
2018-05-08T13:57:03.133Z,36.05
2018-05-08T13:59:35.112Z,35.95
2018-05-08T14:02:07.389Z,36.15
2018-05-08T14:04:39.649Z,36.83
2018-05-08T14:07:12.887Z,36.20
2018-05-08T14:09:47.638Z,36.57
2018-05-08T14:12:19.935Z,35.07
2018-05-08T14:14:55.171Z,35.56
2018-05-08T14:17:27.632Z,35.68
2018-05-08T14:19:58.320Z,33.57
2018-05-08T14:22:29.930Z,34.62
2018-05-08T14:25:01.594Z,34.77
2018-05-08T14:27:37.444Z,35.22
2018-05-08T14:30:08.935Z,35.93
2018-05-08T14:32:39.565Z,35.94
2018-05-08T14:35:09.915Z,35.74
2018-05-08T14:37:40.445Z,35.78
2018-05-08T14:40:11.069Z,35.56
2018-05-08T14:42:41.951Z,36.20
2018-05-08T14:45:17.126Z,36.13
2018-05-08T14:47:48.184Z,34.98
2018-05-08T14:50:18.488Z,35.05
2018-05-08T14:52:50.799Z,33.77
2018-05-08T14:55:21.728Z,33.14
2018-05-08T14:57:55.116Z,33.55
2018-05-08T15:03:45.353Z,34.00
2018-05-08T15:06:17.652Z,34.42
2018-05-08T15:08:49.011Z,32.64
2018-05-08T15:11:21.209Z,33.06
2018-05-08T15:13:54.467Z,33.79
2018-05-08T15:16:27.013Z,34.01
2018-05-08T15:19:04.498Z,33.77
2018-05-08T15:26:59.833Z,31.96
2018-05-08T15:32:17.194Z,31.56
2018-05-08T15:34:50.932Z,32.21
2018-05-08T15:37:23.251Z,31.72
2018-05-08T15:39:53.843Z,32.07
2018-05-08T15:42:24.578Z,32.07
2018-05-08T15:44:55.314Z,32.24
2018-05-08T15:47:27.400Z,31.98
2018-05-08T15:49:57.851Z,32.00
2018-05-08T15:52:29.473Z,31.87
2018-05-08T15:55:02.054Z,32.05
2018-05-08T15:57:46.545Z,31.03
2018-05-08T16:00:19.036Z,31.06
2018-05-08T16:02:50.738Z,31.04
2018-05-08T16:05:27.887Z,31.35
2018-05-08T16:08:17.122Z,30.94
2018-05-08T16:11:03.191Z,31.16
2018-05-08T16:13:36.669Z,31.47
2018-05-08T16:16:09.336Z,30.86
2018-05-08T16:18:39.734Z,31.24
2018-05-08T16:21:13.133Z,31.51
2018-05-08T16:23:47.722Z,31.34
2018-05-08T16:26:19.191Z,31.45
2018-05-08T16:28:50.287Z,31.27
2018-05-08T16:31:21.006Z,30.98
2018-05-08T16:33:55.427Z,31.10
2018-05-08T16:36:34.101Z,30.91
2018-05-08T16:39:08.698Z,30.67
2018-05-08T16:41:40.925Z,30.99
2018-05-08T16:44:14.468Z,31.02
2018-05-08T16:46:52.203Z,31.09
2018-05-08T16:49:23.362Z,31.15
2018-05-08T16:51:54.846Z,31.11
2018-05-08T16:54:27.784Z,31.20
2018-05-08T16:56:59.810Z,31.46
2018-05-08T16:59:40.155Z,31.43
2018-05-08T17:02:15.066Z,31.47
2018-05-08T17:04:51.529Z,31.08
2018-05-08T17:07:35.062Z,31.14
2018-05-08T17:10:16.786Z,31.07
2018-05-08T17:12:50.034Z,31.15
2018-05-08T17:15:20.567Z,31.23
2018-05-08T17:17:52.482Z,31.14
2018-05-08T17:20:25.908Z,31.12
2018-05-08T17:22:57.852Z,30.81
2018-05-08T17:25:31.961Z,30.83
2018-05-08T17:28:03.120Z,30.88
2018-05-08T17:30:35.650Z,30.68
2018-05-08T17:33:08.732Z,30.45
2018-05-08T17:38:40.089Z,30.42
2018-05-08T17:41:13.124Z,30.40
2018-05-08T17:43:46.880Z,30.45
2018-05-08T17:46:19.155Z,30.24
2018-05-08T17:48:50.689Z,30.43
2018-05-08T17:51:24.722Z,30.48
2018-05-08T17:53:55.677Z,30.62
2018-05-08T17:56:28.667Z,30.64
2018-05-08T17:58:59.493Z,30.64
2018-05-08T18:01:31.910Z,30.62
2018-05-08T18:04:11.266Z,30.25
2018-05-08T18:06:44.664Z,30.07
2018-05-08T18:09:48.647Z,30.12
2018-05-08T18:12:21.401Z,30.09
2018-05-08T18:15:10.121Z,30.05
2018-05-08T18:17:42.889Z,29.99
2018-05-08T18:20:20.770Z,30.03
2018-05-08T18:22:56.051Z,30.02
2018-05-08T18:25:27.089Z,30.05
2018-05-08T18:27:58.204Z,30.02
2018-05-08T18:30:29.884Z,29.83
2018-05-08T18:33:05.460Z,29.58
2018-05-08T18:35:37.587Z,29.83
2018-05-08T18:38:11.691Z,29.84
2018-05-08T18:46:19.741Z,29.17
2018-05-08T18:49:11.046Z,29.27
2018-05-08T18:52:16.005Z,29.22
2018-05-08T18:54:54.389Z,29.47
2018-05-08T18:57:33.802Z,29.53
2018-05-08T19:00:30.194Z,29.54
2018-05-08T19:03:11.974Z,29.52
2018-05-08T19:05:43.244Z,29.55
2018-05-08T19:08:16.044Z,29.57
2018-05-08T19:10:47.893Z,29.43
2018-05-08T19:13:39.110Z,29.46
2018-05-08T19:16:10.467Z,29.35
2018-05-08T19:19:20.253Z,29.35
2018-05-08T19:22:00.785Z,29.18
2018-05-08T19:24:36.652Z,29.04
2018-05-08T19:27:10.948Z,28.83
2018-05-08T19:30:32.931Z,28.84
2018-05-08T19:33:03.923Z,28.66
2018-05-08T19:37:46.489Z,28.48
2018-05-08T19:40:17.538Z,28.09
2018-05-08T19:42:50.455Z,28.09
2018-05-08T19:45:22.815Z,28.04
2018-05-08T19:50:26.757Z,27.60
2018-05-08T19:52:57.880Z,27.41
2018-05-08T19:55:29.193Z,27.47
2018-05-08T19:58:00.247Z,27.46
2018-05-08T20:00:31.046Z,27.39
2018-05-08T20:03:07.023Z,27.35
2018-05-08T20:05:39.432Z,27.12
2018-05-08T20:08:10.063Z,27.04
2018-05-08T20:10:42.864Z,26.89
2018-05-08T20:13:14.764Z,26.83
2018-05-08T20:15:47.268Z,26.76
2018-05-08T20:18:19.420Z,26.72
2018-05-08T20:20:56.493Z,26.60
2018-05-08T20:23:27.701Z,26.48
2018-05-08T20:25:59.301Z,26.28
2018-05-08T20:28:29.755Z,25.94
2018-05-08T20:31:00.881Z,25.98
2018-05-08T20:33:31.416Z,25.80
2018-05-08T20:36:02.092Z,25.81
2018-05-08T20:38:33.253Z,25.80
2018-05-08T20:41:04.293Z,25.79
2018-05-08T20:43:34.916Z,25.68
2018-05-08T20:46:05.836Z,25.51
2018-05-08T20:48:36.273Z,25.57
2018-05-08T20:51:12.449Z,25.57
2018-05-08T20:56:16.047Z,25.54
2018-05-08T20:58:46.474Z,25.49
2018-05-08T21:01:17.105Z,25.50
2018-05-08T21:03:47.586Z,25.43
2018-05-08T21:06:19.039Z,25.39
2018-05-08T21:08:52.430Z,25.33
2018-05-08T21:11:23.032Z,25.38
2018-05-08T21:13:55.198Z,25.33
2018-05-08T21:16:27.049Z,25.34
2018-05-08T21:18:57.509Z,25.31
2018-05-08T21:21:28.159Z,25.21
2018-05-08T21:24:00.734Z,25.06
2018-05-08T21:26:31.720Z,24.98
2018-05-08T21:31:48.737Z,25.02
2018-05-08T21:34:27.318Z,25.14
2018-05-08T21:36:59.473Z,25.08
2018-05-08T21:39:32.419Z,25.03
2018-05-08T21:42:03.228Z,25.00
2018-05-08T21:44:34.046Z,25.05
2018-05-08T21:47:04.623Z,25.05
2018-05-08T21:49:35.155Z,25.10
2018-05-08T21:52:05.606Z,25.12
2018-05-08T21:54:36.405Z,25.06
2018-05-08T21:57:08.795Z,24.98
2018-05-08T21:59:42.022Z,24.98
2018-05-08T22:02:15.810Z,24.89
2018-05-08T22:04:46.273Z,24.74
2018-05-08T22:07:16.973Z,24.84
2018-05-08T22:09:47.405Z,24.89
2018-05-08T22:12:21.750Z,24.85
2018-05-08T22:14:52.493Z,24.80
2018-05-08T22:17:24.278Z,24.76
2018-05-08T22:19:55.847Z,24.54
2018-05-08T22:22:27.317Z,24.58
2018-05-08T22:24:58.161Z,24.45
2018-05-08T22:27:29.109Z,24.28
2018-05-08T22:29:59.443Z,24.05
2018-05-08T22:32:30.110Z,23.94
2018-05-08T22:35:00.641Z,23.88
2018-05-08T22:37:32.387Z,23.70
2018-05-08T22:40:02.989Z,23.55
2018-05-08T22:42:34.891Z,23.47
2018-05-08T22:45:07.708Z,23.34
2018-05-08T22:47:38.446Z,23.34
2018-05-08T22:50:08.880Z,23.37
2018-05-08T22:52:39.415Z,23.25
2018-05-08T22:55:09.911Z,23.13
2018-05-08T22:57:40.557Z,22.99
2018-05-08T23:00:11.264Z,23.02
2018-05-08T23:02:43.698Z,22.96
2018-05-08T23:05:14.249Z,23.04
2018-05-08T23:07:44.569Z,23.01
2018-05-08T23:10:16.516Z,23.09
2018-05-08T23:12:48.663Z,23.04
2018-05-08T23:15:19.729Z,23.17
2018-05-08T23:17:50.107Z,23.13
2018-05-08T23:20:21.813Z,23.19
2018-05-08T23:22:52.933Z,23.17
2018-05-08T23:25:23.835Z,23.11
2018-05-08T23:27:54.866Z,23.07
2018-05-08T23:30:26.984Z,23.20
2018-05-08T23:32:58.775Z,23.31
2018-05-08T23:35:29.940Z,23.36
2018-05-08T23:38:00.930Z,23.41
2018-05-08T23:40:31.385Z,23.47
2018-05-08T23:43:01.996Z,23.52
2018-05-08T23:45:33.273Z,23.45
2018-05-08T23:48:03.655Z,23.51
2018-05-08T23:50:33.928Z,23.52
2018-05-08T23:53:05.008Z,23.53
2018-05-08T23:55:35.944Z,23.53
2018-05-08T23:58:06.430Z,23.55
